ADDS TAF Data INFO
IDs: Format: Raw Decoded Include METARs

Data at: 0942 UTC 20 Nov 2017

KSEZ 200935Z AUTO 05004KT 10SM CLR 08/M11 A3015 RMK AO2

KSEZ 200941Z 2010/2106 04008KT P6SM SCT250
  FM201630 VRB05KT P6SM BKN250